Flight Track Log - Related Links

Times and Time Zones

All times are in EDT time to prevent confusion due to time zone crossing. See the N904ER flight status page for this flight to view local times or setup timezone preferences in your user account.

Time Position Orientation Groundspeed Altitude Reporting Facility
EDT Latitude Longitude Course Direction KTS MPH feet Rate Location/Type
Tue 12:01:23 PM 30.9303 -81.4225 196° South 126 145 5,400  Level Jacksonville Center
Tue 12:02:41 PM 30.8844 -81.4208 178° South 138 159 6,200 313 Climbing Jacksonville Center
Tue 12:03:37 PM 30.8467 -81.4117 168° South 175 201 6,100 -154 Descending Jacksonville Center
Tue 12:04:38 PM 30.7964 -81.4028 171° South 163 188 5,900 -98 Descending Jacksonville Center
Tue 12:05:39 PM 30.7525 -81.3939 170° South 160 184 5,900  Level Jacksonville Center
Tue 12:06:00 PM 30.9901 -81.4333 180° South  Level FlightAware Approximate
Tue 12:06:41 PM 30.7064 -81.3872 173° South 164 189 5,900  Level Jacksonville Center
Tue 12:06:41 PM 30.7064 -81.3872 173° South 159 183 5,900  Level Jacksonville Center
Tue 12:07:41 PM 30.6625 -81.3758 167° South 159 183 5,900 50 Level Jacksonville Center
Tue 12:08:41 PM 30.6206 -81.3669 170° South 159 183 6,000  Climbing Jacksonville Center
Tue 12:09:41 PM 30.5767 -81.3581 170° South 159 183 5,900 50 Descending Jacksonville Center
Tue 12:10:41 PM 30.5328 -81.3467 167° South 159 183 6,100  Climbing Jacksonville Center
Tue 12:11:45 PM 30.4889 -81.3378 170° South 157 181 5,900 -96 Descending Jacksonville Center
Tue 12:12:46 PM 30.4428 -81.3311 173° South 160 184 5,900  Level Jacksonville Center
Tue 12:13:47 PM 30.3989 -81.3247 173° South 157 181 5,900 49 Level Jacksonville Center
Tue 12:14:49 PM 30.3528 -81.3183 173° South 158 182 6,000  Climbing Jacksonville Center
Tue 12:15:49 PM 30.3089 -81.3094 170° South 154 177 5,900 -49 Descending Jacksonville Center
Tue 12:16:51 PM 30.2669 -81.2981 167° South 159 183 5,900  Level Jacksonville Center
Tue 12:17:45 PM 30.2253 -81.2914 172° South 156 180 5,900  Level Jacksonville Center
Tue 12:18:46 PM 30.1833 -81.2825 170° South 162 186 5,900 49 Level Jacksonville Center
Tue 12:19:47 PM 30.1394 -81.2761 173° South 152 175 6,000 148 Climbing Jacksonville Center
Tue 12:20:48 PM 30.0953 -81.2672 170° South 159 183 6,200 49 Climbing Jacksonville Center
Tue 12:21:49 PM 30.0494 -81.2608 173° South 159 183 6,100 -148 Descending Jacksonville Center
Tue 12:22:50 PM 30.0014 -81.2544 173° South 167 192 5,900 -98 Descending Jacksonville Center
Tue 12:23:51 PM 29.9572 -81.2456 170° South 168 193 5,900  Level Jacksonville Center
Tue 12:24:46 PM 29.9194 -81.2319 163° South 149 171 5,900 115 Level Jacksonville Center
Tue 12:25:35 PM 29.8819 -81.2253 171° South 161 185 6,100 115 Climbing Jacksonville Center
Tue 12:26:30 PM 29.8442 -81.2139 165° South 164 189 6,100 -52 Level Jacksonville Center
Tue 12:27:31 PM 29.7983 -81.2125 178° South 164 189 6,000 -295 Descending Jacksonville Center
Tue 12:28:32 PM 29.7522 -81.2061 173° South 169 194 5,500 -590 Descending Jacksonville Center
Tue 12:29:33 PM 29.7042 -81.1972 171° South 170 196 4,800 -656 Descending Jacksonville Center
Tue 12:30:40 PM 29.6517 -81.1886 172° South 166 191 4,100 -443 Descending Jacksonville Center
Tue 12:31:35 PM 29.6119 -81.1844 175° South 158 182 3,900 -49 Descending Jacksonville Center
Tue 12:32:42 PM 29.5681 -81.1733 168° South 154 177 4,000 47 Climbing Jacksonville Center
Tue 12:33:43 PM 29.5219 -81.1647 171° South 150 173 4,000 -295 Level Jacksonville Center
Tue 12:34:44 PM 29.4781 -81.1583 173° South 160 184 3,400 -492 Descending Jacksonville Center
Tue 12:35:45 PM 29.4364 -81.1494 169° South 152 175 3,000 -155 Descending Jacksonville Center
Tue 12:36:40 PM 29.4050 -81.1475 177° South 119 137 3,100 -197 Climbing Jacksonville Center
Tue 12:37:47 PM 29.3694 -81.1436 175° South 119 137 2,600 -703 Descending Jacksonville Center
Tue 12:38:48 PM 29.3317 -81.1322 165° South 138 159 1,600 -517 Descending Jacksonville Center
Tue 12:39:43 PM 29.3064 -81.1161 151° Southeast 114 131 1,600  Level Jacksonville Center
Tue 12:40:50 PM 29.2728 -81.1000 157° South 108 124 1,600 -52 Level Jacksonville Center
Tue 12:41:39 PM 29.2517 -81.0908 159° South 106 122 1,500 -347 Descending Jacksonville Center
Tue 12:42:51 PM 29.2203 -81.0747 156° South 96 110 900 -378 Descending Jacksonville Center
Tue 12:43:46 PM 29.1969 -81.0633 157° South 101 116 700 -155 Descending Jacksonville Center
Tue 12:44:47 PM 29.1808 -81.0897 235° Southwest 113 130 600 -98 Descending Jacksonville Center
Tue 12:46:00 PM 29.1799 -81.0581 161° South  Level Estimated
Tue 12:53:00 PM 29.1799 -81.0581 161° South  Level Estimated
Tue 12:54:00 PM 29.1799 -81.0581 161° South  Level Estimated
Tue 12:55:00 PM 29.1799 -81.0581 161° South  Level Estimated

Login

Don't have an account? Register now (free) for customized features, flight alerts, and more!